sensor_id;sensor_type;location;lat;lon;timestamp;P1;durP1;ratioP1;P2;durP2;ratioP2
39022;SDS011;25908;51.984;5.928;2023-08-08T00:02:17;5.25;;;3.13;;
39022;SDS011;25908;51.984;5.928;2023-08-08T00:04:43;8.27;;;2.90;;
39022;SDS011;25908;51.984;5.928;2023-08-08T00:07:09;4.55;;;2.70;;
39022;SDS011;25908;51.984;5.928;2023-08-08T00:09:35;5.07;;;2.63;;
39022;SDS011;25908;51.984;5.928;2023-08-08T00:12:01;4.05;;;2.75;;
39022;SDS011;25908;51.984;5.928;2023-08-08T00:14:26;6.45;;;2.83;;
39022;SDS011;25908;51.984;5.928;2023-08-08T00:16:52;6.22;;;2.83;;
39022;SDS011;25908;51.984;5.928;2023-08-08T00:19:17;4.90;;;2.80;;
39022;SDS011;25908;51.984;5.928;2023-08-08T00:21:43;4.78;;;2.95;;
39022;SDS011;25908;51.984;5.928;2023-08-08T00:24:08;6.13;;;3.25;;
39022;SDS011;25908;51.984;5.928;2023-08-08T00:26:34;5.10;;;2.85;;
39022;SDS011;25908;51.984;5.928;2023-08-08T00:29:00;6.47;;;3.03;;
39022;SDS011;25908;51.984;5.928;2023-08-08T00:31:25;6.55;;;3.10;;
39022;SDS011;25908;51.984;5.928;2023-08-08T00:33:51;5.22;;;3.17;;
39022;SDS011;25908;51.984;5.928;2023-08-08T00:36:16;8.75;;;4.10;;
39022;SDS011;25908;51.984;5.928;2023-08-08T00:38:42;5.78;;;3.30;;
39022;SDS011;25908;51.984;5.928;2023-08-08T00:41:08;7.00;;;3.28;;
39022;SDS011;25908;51.984;5.928;2023-08-08T00:43:33;4.72;;;3.10;;
39022;SDS011;25908;51.984;5.928;2023-08-08T00:45:59;6.97;;;3.42;;
39022;SDS011;25908;51.984;5.928;2023-08-08T00:48:24;5.20;;;3.42;;
39022;SDS011;25908;51.984;5.928;2023-08-08T00:50:50;6.90;;;3.13;;
39022;SDS011;25908;51.984;5.928;2023-08-08T00:53:18;8.57;;;3.35;;
39022;SDS011;25908;51.984;5.928;2023-08-08T00:55:45;6.65;;;3.55;;
39022;SDS011;25908;51.984;5.928;2023-08-08T00:58:11;6.50;;;3.80;;
39022;SDS011;25908;51.984;5.928;2023-08-08T01:00:37;6.60;;;2.92;;
39022;SDS011;25908;51.984;5.928;2023-08-08T01:03:03;6.22;;;3.40;;
39022;SDS011;25908;51.984;5.928;2023-08-08T01:05:31;6.65;;;3.20;;
39022;SDS011;25908;51.984;5.928;2023-08-08T01:08:06;7.53;;;3.58;;
39022;SDS011;25908;51.984;5.928;2023-08-08T01:10:38;5.95;;;3.75;;
39022;SDS011;25908;51.984;5.928;2023-08-08T01:13:08;5.53;;;3.13;;
39022;SDS011;25908;51.984;5.928;2023-08-08T01:15:37;5.47;;;3.20;;
39022;SDS011;25908;51.984;5.928;2023-08-08T01:18:06;5.60;;;3.67;;
39022;SDS011;25908;51.984;5.928;2023-08-08T01:20:33;5.57;;;3.50;;
39022;SDS011;25908;51.984;5.928;2023-08-08T01:25:41;5.55;;;2.90;;
39022;SDS011;25908;51.984;5.928;2023-08-08T01:28:08;8.38;;;3.97;;
39022;SDS011;25908;51.984;5.928;2023-08-08T01:30:34;8.13;;;3.65;;
39022;SDS011;25908;51.984;5.928;2023-08-08T01:32:59;7.57;;;3.45;;
39022;SDS011;25908;51.984;5.928;2023-08-08T01:35:26;8.02;;;3.35;;
39022;SDS011;25908;51.984;5.928;2023-08-08T01:38:20;4.40;;;2.80;;
39022;SDS011;25908;51.984;5.928;2023-08-08T01:40:49;9.95;;;3.47;;
39022;SDS011;25908;51.984;5.928;2023-08-08T01:43:15;7.85;;;2.90;;
39022;SDS011;25908;51.984;5.928;2023-08-08T01:45:41;5.63;;;3.58;;
39022;SDS011;25908;51.984;5.928;2023-08-08T01:48:09;5.60;;;3.13;;
39022;SDS011;25908;51.984;5.928;2023-08-08T01:50:36;6.30;;;3.05;;
39022;SDS011;25908;51.984;5.928;2023-08-08T01:53:02;5.63;;;3.00;;
39022;SDS011;25908;51.984;5.928;2023-08-08T01:55:29;6.45;;;3.10;;
39022;SDS011;25908;51.984;5.928;2023-08-08T01:57:55;5.65;;;3.10;;
39022;SDS011;25908;51.984;5.928;2023-08-08T02:00:20;7.72;;;3.20;;
39022;SDS011;25908;51.984;5.928;2023-08-08T02:02:46;6.32;;;3.20;;
39022;SDS011;25908;51.984;5.928;2023-08-08T02:05:12;8.82;;;3.85;;
39022;SDS011;25908;51.984;5.928;2023-08-08T02:07:38;7.10;;;2.85;;
39022;SDS011;25908;51.984;5.928;2023-08-08T02:10:04;5.93;;;3.05;;
39022;SDS011;25908;51.984;5.928;2023-08-08T02:12:30;7.00;;;3.50;;
39022;SDS011;25908;51.984;5.928;2023-08-08T02:14:56;8.68;;;3.28;;
39022;SDS011;25908;51.984;5.928;2023-08-08T02:17:22;6.32;;;2.80;;
39022;SDS011;25908;51.984;5.928;2023-08-08T02:19:48;5.88;;;2.97;;
39022;SDS011;25908;51.984;5.928;2023-08-08T02:22:13;4.85;;;2.60;;
39022;SDS011;25908;51.984;5.928;2023-08-08T02:24:39;7.18;;;3.42;;
39022;SDS011;25908;51.984;5.928;2023-08-08T02:27:04;7.07;;;3.03;;
39022;SDS011;25908;51.984;5.928;2023-08-08T02:29:30;4.45;;;2.50;;
39022;SDS011;25908;51.984;5.928;2023-08-08T02:31:56;5.65;;;2.47;;
39022;SDS011;25908;51.984;5.928;2023-08-08T02:34:21;9.77;;;3.05;;
39022;SDS011;25908;51.984;5.928;2023-08-08T02:36:47;6.75;;;2.80;;
39022;SDS011;25908;51.984;5.928;2023-08-08T02:39:13;6.15;;;2.85;;
39022;SDS011;25908;51.984;5.928;2023-08-08T02:41:38;6.65;;;2.70;;
39022;SDS011;25908;51.984;5.928;2023-08-08T02:44:04;8.48;;;3.67;;
39022;SDS011;25908;51.984;5.928;2023-08-08T02:46:30;7.03;;;2.78;;
39022;SDS011;25908;51.984;5.928;2023-08-08T02:48:55;9.30;;;2.83;;
39022;SDS011;25908;51.984;5.928;2023-08-08T02:51:21;5.75;;;2.45;;
39022;SDS011;25908;51.984;5.928;2023-08-08T02:53:46;9.15;;;2.83;;
39022;SDS011;25908;51.984;5.928;2023-08-08T02:56:12;5.65;;;2.75;;
39022;SDS011;25908;51.984;5.928;2023-08-08T02:58:38;5.90;;;2.10;;
39022;SDS011;25908;51.984;5.928;2023-08-08T03:01:03;6.22;;;3.22;;
39022;SDS011;25908;51.984;5.928;2023-08-08T03:03:29;3.90;;;2.20;;
39022;SDS011;25908;51.984;5.928;2023-08-08T03:05:54;7.43;;;2.70;;
39022;SDS011;25908;51.984;5.928;2023-08-08T03:08:20;6.40;;;2.60;;
39022;SDS011;25908;51.984;5.928;2023-08-08T03:10:45;5.90;;;2.45;;
39022;SDS011;25908;51.984;5.928;2023-08-08T03:13:11;7.00;;;2.55;;
39022;SDS011;25908;51.984;5.928;2023-08-08T03:15:37;4.85;;;2.67;;
39022;SDS011;25908;51.984;5.928;2023-08-08T03:18:02;5.20;;;2.80;;
39022;SDS011;25908;51.984;5.928;2023-08-08T03:20:28;5.30;;;2.35;;
39022;SDS011;25908;51.984;5.928;2023-08-08T03:22:54;5.22;;;2.53;;
39022;SDS011;25908;51.984;5.928;2023-08-08T03:25:19;5.32;;;2.45;;
39022;SDS011;25908;51.984;5.928;2023-08-08T03:27:45;6.43;;;2.80;;
39022;SDS011;25908;51.984;5.928;2023-08-08T03:30:11;8.50;;;2.85;;
39022;SDS011;25908;51.984;5.928;2023-08-08T03:32:37;8.73;;;3.97;;
39022;SDS011;25908;51.984;5.928;2023-08-08T03:35:03;8.20;;;3.70;;
39022;SDS011;25908;51.984;5.928;2023-08-08T03:37:29;6.53;;;3.60;;
39022;SDS011;25908;51.984;5.928;2023-08-08T03:39:55;7.13;;;3.55;;
39022;SDS011;25908;51.984;5.928;2023-08-08T03:42:21;7.80;;;3.88;;
39022;SDS011;25908;51.984;5.928;2023-08-08T03:44:46;6.30;;;3.22;;
39022;SDS011;25908;51.984;5.928;2023-08-08T03:47:12;7.45;;;3.42;;
39022;SDS011;25908;51.984;5.928;2023-08-08T03:49:37;11.70;;;4.05;;
39022;SDS011;25908;51.984;5.928;2023-08-08T03:52:03;9.63;;;4.72;;
39022;SDS011;25908;51.984;5.928;2023-08-08T03:54:29;8.90;;;4.45;;
39022;SDS011;25908;51.984;5.928;2023-08-08T03:56:55;7.22;;;3.88;;
39022;SDS011;25908;51.984;5.928;2023-08-08T03:59:21;9.32;;;4.20;;
39022;SDS011;25908;51.984;5.928;2023-08-08T04:01:46;9.15;;;4.53;;
39022;SDS011;25908;51.984;5.928;2023-08-08T04:04:12;8.23;;;4.38;;
39022;SDS011;25908;51.984;5.928;2023-08-08T04:06:38;8.95;;;4.40;;
39022;SDS011;25908;51.984;5.928;2023-08-08T04:09:03;7.50;;;4.13;;
39022;SDS011;25908;51.984;5.928;2023-08-08T04:11:29;8.68;;;4.35;;
39022;SDS011;25908;51.984;5.928;2023-08-08T04:13:55;10.63;;;3.60;;
39022;SDS011;25908;51.984;5.928;2023-08-08T04:16:20;9.05;;;4.03;;
39022;SDS011;25908;51.984;5.928;2023-08-08T04:18:46;8.07;;;4.30;;
39022;SDS011;25908;51.984;5.928;2023-08-08T04:21:12;6.15;;;3.65;;
39022;SDS011;25908;51.984;5.928;2023-08-08T04:23:37;8.23;;;4.25;;
39022;SDS011;25908;51.984;5.928;2023-08-08T04:26:03;10.32;;;4.35;;
39022;SDS011;25908;51.984;5.928;2023-08-08T04:28:28;9.02;;;5.10;;
39022;SDS011;25908;51.984;5.928;2023-08-08T04:30:54;7.28;;;3.75;;
39022;SDS011;25908;51.984;5.928;2023-08-08T04:33:19;8.82;;;3.65;;
39022;SDS011;25908;51.984;5.928;2023-08-08T04:35:45;6.68;;;4.55;;
39022;SDS011;25908;51.984;5.928;2023-08-08T04:38:13;8.23;;;3.70;;
39022;SDS011;25908;51.984;5.928;2023-08-08T04:40:40;6.47;;;3.80;;
39022;SDS011;25908;51.984;5.928;2023-08-08T04:43:06;6.55;;;3.80;;
39022;SDS011;25908;51.984;5.928;2023-08-08T04:45:31;10.35;;;5.10;;
39022;SDS011;25908;51.984;5.928;2023-08-08T04:47:58;9.75;;;4.03;;
39022;SDS011;25908;51.984;5.928;2023-08-08T04:50:23;10.80;;;4.88;;
39022;SDS011;25908;51.984;5.928;2023-08-08T04:52:49;6.72;;;4.10;;
39022;SDS011;25908;51.984;5.928;2023-08-08T04:55:15;9.07;;;3.92;;
39022;SDS011;25908;51.984;5.928;2023-08-08T04:57:40;13.75;;;4.78;;
39022;SDS011;25908;51.984;5.928;2023-08-08T05:00:06;8.77;;;4.18;;
39022;SDS011;25908;51.984;5.928;2023-08-08T05:02:34;8.02;;;4.38;;
39022;SDS011;25908;51.984;5.928;2023-08-08T05:05:00;10.98;;;4.18;;
39022;SDS011;25908;51.984;5.928;2023-08-08T05:07:26;8.23;;;4.28;;
39022;SDS011;25908;51.984;5.928;2023-08-08T05:09:52;10.75;;;5.03;;
39022;SDS011;25908;51.984;5.928;2023-08-08T05:12:18;8.85;;;4.65;;
39022;SDS011;25908;51.984;5.928;2023-08-08T05:14:43;10.45;;;5.05;;
39022;SDS011;25908;51.984;5.928;2023-08-08T05:17:09;8.50;;;4.43;;
39022;SDS011;25908;51.984;5.928;2023-08-08T05:19:34;11.48;;;4.68;;
39022;SDS011;25908;51.984;5.928;2023-08-08T05:22:00;10.52;;;4.65;;
39022;SDS011;25908;51.984;5.928;2023-08-08T05:24:25;8.02;;;4.93;;
39022;SDS011;25908;51.984;5.928;2023-08-08T05:26:51;9.93;;;5.28;;
39022;SDS011;25908;51.984;5.928;2023-08-08T05:29:18;12.50;;;4.78;;
39022;SDS011;25908;51.984;5.928;2023-08-08T05:31:44;9.02;;;4.28;;
39022;SDS011;25908;51.984;5.928;2023-08-08T05:34:10;9.00;;;4.72;;
39022;SDS011;25908;51.984;5.928;2023-08-08T05:36:36;9.23;;;4.97;;
39022;SDS011;25908;51.984;5.928;2023-08-08T05:39:01;8.88;;;5.07;;
39022;SDS011;25908;51.984;5.928;2023-08-08T05:41:27;10.00;;;5.38;;
39022;SDS011;25908;51.984;5.928;2023-08-08T05:43:53;9.65;;;4.82;;
39022;SDS011;25908;51.984;5.928;2023-08-08T05:46:18;7.75;;;5.18;;
39022;SDS011;25908;51.984;5.928;2023-08-08T05:48:44;11.82;;;5.15;;
39022;SDS011;25908;51.984;5.928;2023-08-08T05:51:11;9.35;;;5.03;;
39022;SDS011;25908;51.984;5.928;2023-08-08T05:53:37;13.00;;;4.85;;
39022;SDS011;25908;51.984;5.928;2023-08-08T05:56:03;11.90;;;5.40;;
39022;SDS011;25908;51.984;5.928;2023-08-08T05:58:29;10.25;;;5.05;;
39022;SDS011;25908;51.984;5.928;2023-08-08T06:00:55;11.07;;;4.90;;
39022;SDS011;25908;51.984;5.928;2023-08-08T06:03:20;12.73;;;5.20;;
39022;SDS011;25908;51.984;5.928;2023-08-08T06:05:46;11.13;;;5.22;;
39022;SDS011;25908;51.984;5.928;2023-08-08T06:08:11;11.80;;;4.68;;
39022;SDS011;25908;51.984;5.928;2023-08-08T06:10:38;8.35;;;5.03;;
39022;SDS011;25908;51.984;5.928;2023-08-08T06:13:04;9.32;;;5.05;;
39022;SDS011;25908;51.984;5.928;2023-08-08T06:15:29;8.85;;;5.10;;
39022;SDS011;25908;51.984;5.928;2023-08-08T06:17:55;8.73;;;4.68;;
39022;SDS011;25908;51.984;5.928;2023-08-08T06:20:22;17.67;;;5.57;;
39022;SDS011;25908;51.984;5.928;2023-08-08T06:22:48;12.05;;;5.35;;
39022;SDS011;25908;51.984;5.928;2023-08-08T06:25:13;11.95;;;5.45;;
39022;SDS011;25908;51.984;5.928;2023-08-08T06:27:39;12.80;;;4.55;;
39022;SDS011;25908;51.984;5.928;2023-08-08T06:30:05;10.45;;;4.88;;
39022;SDS011;25908;51.984;5.928;2023-08-08T06:32:31;7.57;;;4.18;;
39022;SDS011;25908;51.984;5.928;2023-08-08T06:34:57;8.32;;;3.88;;
39022;SDS011;25908;51.984;5.928;2023-08-08T06:37:23;10.65;;;4.00;;
39022;SDS011;25908;51.984;5.928;2023-08-08T06:39:48;7.57;;;3.42;;
39022;SDS011;25908;51.984;5.928;2023-08-08T06:42:14;6.90;;;3.42;;
39022;SDS011;25908;51.984;5.928;2023-08-08T06:44:43;10.00;;;4.05;;
39022;SDS011;25908;51.984;5.928;2023-08-08T06:47:09;6.32;;;3.30;;
39022;SDS011;25908;51.984;5.928;2023-08-08T06:49:35;9.35;;;3.90;;
39022;SDS011;25908;51.984;5.928;2023-08-08T06:52:01;10.63;;;3.90;;
39022;SDS011;25908;51.984;5.928;2023-08-08T06:54:27;9.40;;;3.17;;
39022;SDS011;25908;51.984;5.928;2023-08-08T06:56:53;7.40;;;3.67;;
39022;SDS011;25908;51.984;5.928;2023-08-08T06:59:22;10.70;;;3.38;;
39022;SDS011;25908;51.984;5.928;2023-08-08T07:01:48;10.82;;;3.60;;
39022;SDS011;25908;51.984;5.928;2023-08-08T07:04:14;9.38;;;3.33;;
39022;SDS011;25908;51.984;5.928;2023-08-08T07:06:39;6.90;;;3.13;;
39022;SDS011;25908;51.984;5.928;2023-08-08T07:09:05;7.03;;;2.65;;
39022;SDS011;25908;51.984;5.928;2023-08-08T07:11:35;7.13;;;2.53;;
39022;SDS011;25908;51.984;5.928;2023-08-08T07:14:01;9.18;;;2.72;;
39022;SDS011;25908;51.984;5.928;2023-08-08T07:16:26;6.38;;;2.30;;
39022;SDS011;25908;51.984;5.928;2023-08-08T07:18:52;6.25;;;2.53;;
39022;SDS011;25908;51.984;5.928;2023-08-08T07:21:17;6.60;;;1.63;;
39022;SDS011;25908;51.984;5.928;2023-08-08T07:23:43;7.05;;;1.80;;
39022;SDS011;25908;51.984;5.928;2023-08-08T07:26:09;4.72;;;1.40;;
39022;SDS011;25908;51.984;5.928;2023-08-08T07:28:35;4.03;;;1.15;;
39022;SDS011;25908;51.984;5.928;2023-08-08T07:31:01;5.05;;;1.08;;
39022;SDS011;25908;51.984;5.928;2023-08-08T07:33:26;4.03;;;1.50;;
39022;SDS011;25908;51.984;5.928;2023-08-08T07:35:52;3.15;;;0.80;;
39022;SDS011;25908;51.984;5.928;2023-08-08T07:38:18;6.45;;;1.00;;
39022;SDS011;25908;51.984;5.928;2023-08-08T07:40:43;3.30;;;1.00;;
39022;SDS011;25908;51.984;5.928;2023-08-08T07:43:10;4.68;;;1.25;;
39022;SDS011;25908;51.984;5.928;2023-08-08T07:45:36;3.03;;;0.90;;
39022;SDS011;25908;51.984;5.928;2023-08-08T07:48:02;3.13;;;0.90;;
39022;SDS011;25908;51.984;5.928;2023-08-08T07:50:28;3.42;;;0.93;;
39022;SDS011;25908;51.984;5.928;2023-08-08T07:52:54;5.03;;;0.90;;
39022;SDS011;25908;51.984;5.928;2023-08-08T07:55:20;4.45;;;0.85;;
39022;SDS011;25908;51.984;5.928;2023-08-08T07:57:45;3.85;;;0.82;;
39022;SDS011;25908;51.984;5.928;2023-08-08T08:00:11;2.25;;;0.68;;
39022;SDS011;25908;51.984;5.928;2023-08-08T08:02:38;3.97;;;0.82;;
39022;SDS011;25908;51.984;5.928;2023-08-08T08:05:08;2.90;;;0.90;;
39022;SDS011;25908;51.984;5.928;2023-08-08T08:07:34;19.20;;;1.52;;
39022;SDS011;25908;51.984;5.928;2023-08-08T08:10:04;3.90;;;0.75;;
39022;SDS011;25908;51.984;5.928;2023-08-08T08:14:57;5.00;;;1.33;;
39022;SDS011;25908;51.984;5.928;2023-08-08T08:17:23;3.15;;;0.68;;
39022;SDS011;25908;51.984;5.928;2023-08-08T08:19:52;4.40;;;0.75;;
39022;SDS011;25908;51.984;5.928;2023-08-08T08:22:18;1.85;;;0.65;;
39022;SDS011;25908;51.984;5.928;2023-08-08T08:24:44;2.55;;;1.00;;
39022;SDS011;25908;51.984;5.928;2023-08-08T08:27:11;0.88;;;0.55;;
39022;SDS011;25908;51.984;5.928;2023-08-08T08:29:37;2.60;;;0.80;;
39022;SDS011;25908;51.984;5.928;2023-08-08T08:32:02;1.70;;;0.70;;
39022;SDS011;25908;51.984;5.928;2023-08-08T08:34:28;2.55;;;0.75;;
39022;SDS011;25908;51.984;5.928;2023-08-08T08:36:54;2.65;;;0.65;;
39022;SDS011;25908;51.984;5.928;2023-08-08T08:39:19;1.55;;;0.50;;
39022;SDS011;25908;51.984;5.928;2023-08-08T08:41:47;2.55;;;0.70;;
